sensor_id;sensor_type;location;lat;lon;timestamp;P1;durP1;ratioP1;P2;durP2;ratioP2
30169;SDS011;46426;51.368;5.254;2023-11-21T00:00:31;6.28;;;4.20;;
30169;SDS011;46426;51.368;5.254;2023-11-21T00:01:03;6.37;;;3.90;;
30169;SDS011;46426;51.368;5.254;2023-11-21T00:01:36;6.10;;;4.30;;
30169;SDS011;46426;51.368;5.254;2023-11-21T00:02:09;4.60;;;3.93;;
30169;SDS011;46426;51.368;5.254;2023-11-21T00:02:41;5.80;;;4.28;;
30169;SDS011;46426;51.368;5.254;2023-11-21T00:03:13;5.57;;;4.37;;
30169;SDS011;46426;51.368;5.254;2023-11-21T00:03:47;4.70;;;4.20;;
30169;SDS011;46426;51.368;5.254;2023-11-21T00:04:19;6.30;;;4.50;;
30169;SDS011;46426;51.368;5.254;2023-11-21T00:04:51;5.53;;;4.28;;
30169;SDS011;46426;51.368;5.254;2023-11-21T00:05:24;6.03;;;4.22;;
30169;SDS011;46426;51.368;5.254;2023-11-21T00:05:56;5.43;;;4.40;;
30169;SDS011;46426;51.368;5.254;2023-11-21T00:06:28;5.95;;;4.30;;
30169;SDS011;46426;51.368;5.254;2023-11-21T00:07:01;5.07;;;4.30;;
30169;SDS011;46426;51.368;5.254;2023-11-21T00:07:34;6.07;;;4.37;;
30169;SDS011;46426;51.368;5.254;2023-11-21T00:08:06;6.03;;;4.50;;
30169;SDS011;46426;51.368;5.254;2023-11-21T00:08:38;5.47;;;4.43;;
30169;SDS011;46426;51.368;5.254;2023-11-21T00:09:10;4.78;;;3.90;;
30169;SDS011;46426;51.368;5.254;2023-11-21T00:09:44;4.90;;;4.10;;
30169;SDS011;46426;51.368;5.254;2023-11-21T00:10:17;5.35;;;4.60;;
30169;SDS011;46426;51.368;5.254;2023-11-21T00:10:49;6.53;;;4.68;;
30169;SDS011;46426;51.368;5.254;2023-11-21T00:11:23;7.65;;;4.68;;
30169;SDS011;46426;51.368;5.254;2023-11-21T00:11:56;6.43;;;3.95;;
30169;SDS011;46426;51.368;5.254;2023-11-21T00:12:28;5.07;;;4.45;;
30169;SDS011;46426;51.368;5.254;2023-11-21T00:13:01;5.25;;;4.18;;
30169;SDS011;46426;51.368;5.254;2023-11-21T00:13:34;6.53;;;4.13;;
30169;SDS011;46426;51.368;5.254;2023-11-21T00:14:07;5.10;;;4.57;;
30169;SDS011;46426;51.368;5.254;2023-11-21T00:14:40;5.47;;;4.10;;
30169;SDS011;46426;51.368;5.254;2023-11-21T00:15:12;5.15;;;4.35;;
30169;SDS011;46426;51.368;5.254;2023-11-21T00:15:44;6.30;;;4.47;;
30169;SDS011;46426;51.368;5.254;2023-11-21T00:16:16;5.25;;;4.22;;
30169;SDS011;46426;51.368;5.254;2023-11-21T00:16:48;5.22;;;4.32;;
30169;SDS011;46426;51.368;5.254;2023-11-21T00:17:21;5.38;;;4.18;;
30169;SDS011;46426;51.368;5.254;2023-11-21T00:17:53;5.63;;;4.40;;
30169;SDS011;46426;51.368;5.254;2023-11-21T00:18:25;5.30;;;4.43;;
30169;SDS011;46426;51.368;5.254;2023-11-21T00:18:57;5.03;;;4.00;;
30169;SDS011;46426;51.368;5.254;2023-11-21T00:19:29;5.28;;;4.28;;
30169;SDS011;46426;51.368;5.254;2023-11-21T00:20:01;5.00;;;4.03;;
30169;SDS011;46426;51.368;5.254;2023-11-21T00:20:35;6.60;;;4.80;;
30169;SDS011;46426;51.368;5.254;2023-11-21T00:21:08;4.83;;;4.03;;
30169;SDS011;46426;51.368;5.254;2023-11-21T00:21:40;6.47;;;4.13;;
30169;SDS011;46426;51.368;5.254;2023-11-21T00:22:15;4.82;;;3.92;;
30169;SDS011;46426;51.368;5.254;2023-11-21T00:22:47;5.00;;;4.00;;
30169;SDS011;46426;51.368;5.254;2023-11-21T00:23:20;5.93;;;4.33;;
30169;SDS011;46426;51.368;5.254;2023-11-21T00:23:52;5.47;;;4.00;;
30169;SDS011;46426;51.368;5.254;2023-11-21T00:24:24;5.75;;;4.10;;
30169;SDS011;46426;51.368;5.254;2023-11-21T00:24:56;5.00;;;4.47;;
30169;SDS011;46426;51.368;5.254;2023-11-21T00:25:29;5.50;;;4.30;;
30169;SDS011;46426;51.368;5.254;2023-11-21T00:26:01;5.63;;;4.22;;
30169;SDS011;46426;51.368;5.254;2023-11-21T00:26:33;5.60;;;4.10;;
30169;SDS011;46426;51.368;5.254;2023-11-21T00:27:09;4.80;;;4.13;;
30169;SDS011;46426;51.368;5.254;2023-11-21T00:27:41;4.75;;;4.05;;
30169;SDS011;46426;51.368;5.254;2023-11-21T00:28:13;5.70;;;4.55;;
30169;SDS011;46426;51.368;5.254;2023-11-21T00:28:46;6.65;;;4.70;;
30169;SDS011;46426;51.368;5.254;2023-11-21T00:29:18;6.37;;;4.53;;
30169;SDS011;46426;51.368;5.254;2023-11-21T00:29:50;6.60;;;4.75;;
30169;SDS011;46426;51.368;5.254;2023-11-21T00:30:22;5.93;;;4.15;;
30169;SDS011;46426;51.368;5.254;2023-11-21T00:30:54;4.83;;;4.07;;
30169;SDS011;46426;51.368;5.254;2023-11-21T00:31:26;5.20;;;4.10;;
30169;SDS011;46426;51.368;5.254;2023-11-21T00:31:59;5.43;;;4.32;;
30169;SDS011;46426;51.368;5.254;2023-11-21T00:32:31;4.80;;;3.80;;
30169;SDS011;46426;51.368;5.254;2023-11-21T00:33:03;4.83;;;4.00;;
30169;SDS011;46426;51.368;5.254;2023-11-21T00:33:36;5.37;;;4.33;;
30169;SDS011;46426;51.368;5.254;2023-11-21T00:34:08;5.63;;;4.40;;
30169;SDS011;46426;51.368;5.254;2023-11-21T00:34:41;5.53;;;4.10;;
30169;SDS011;46426;51.368;5.254;2023-11-21T00:35:14;6.77;;;4.47;;
30169;SDS011;46426;51.368;5.254;2023-11-21T00:35:47;5.80;;;4.60;;
30169;SDS011;46426;51.368;5.254;2023-11-21T00:36:19;6.03;;;4.17;;
30169;SDS011;46426;51.368;5.254;2023-11-21T00:36:51;5.63;;;4.23;;
30169;SDS011;46426;51.368;5.254;2023-11-21T00:37:25;5.40;;;4.53;;
30169;SDS011;46426;51.368;5.254;2023-11-21T00:37:57;5.97;;;4.30;;
30169;SDS011;46426;51.368;5.254;2023-11-21T00:38:30;5.50;;;4.23;;
30169;SDS011;46426;51.368;5.254;2023-11-21T00:39:03;5.07;;;3.97;;
30169;SDS011;46426;51.368;5.254;2023-11-21T00:39:35;4.78;;;3.92;;
30169;SDS011;46426;51.368;5.254;2023-11-21T00:40:07;5.43;;;3.95;;
30169;SDS011;46426;51.368;5.254;2023-11-21T00:40:41;5.07;;;4.10;;
30169;SDS011;46426;51.368;5.254;2023-11-21T00:41:14;5.50;;;4.32;;
30169;SDS011;46426;51.368;5.254;2023-11-21T00:41:46;6.67;;;4.07;;
30169;SDS011;46426;51.368;5.254;2023-11-21T00:42:18;4.63;;;4.10;;
30169;SDS011;46426;51.368;5.254;2023-11-21T00:42:50;4.78;;;4.28;;
30169;SDS011;46426;51.368;5.254;2023-11-21T00:43:23;5.87;;;4.27;;
30169;SDS011;46426;51.368;5.254;2023-11-21T00:43:55;5.57;;;4.50;;
30169;SDS011;46426;51.368;5.254;2023-11-21T00:44:28;6.27;;;4.33;;
30169;SDS011;46426;51.368;5.254;2023-11-21T00:45:00;5.93;;;4.03;;
30169;SDS011;46426;51.368;5.254;2023-11-21T00:45:32;6.22;;;4.05;;
30169;SDS011;46426;51.368;5.254;2023-11-21T00:46:04;6.53;;;4.07;;
30169;SDS011;46426;51.368;5.254;2023-11-21T00:46:39;9.30;;;4.47;;
30169;SDS011;46426;51.368;5.254;2023-11-21T00:47:11;5.93;;;4.10;;
30169;SDS011;46426;51.368;5.254;2023-11-21T00:47:44;4.53;;;4.07;;
30169;SDS011;46426;51.368;5.254;2023-11-21T00:48:16;5.68;;;4.38;;
30169;SDS011;46426;51.368;5.254;2023-11-21T00:48:49;6.53;;;4.03;;
30169;SDS011;46426;51.368;5.254;2023-11-21T00:49:22;6.93;;;4.40;;
30169;SDS011;46426;51.368;5.254;2023-11-21T00:49:54;6.03;;;4.68;;
30169;SDS011;46426;51.368;5.254;2023-11-21T00:50:26;5.60;;;3.90;;
30169;SDS011;46426;51.368;5.254;2023-11-21T00:51:01;6.97;;;4.80;;
30169;SDS011;46426;51.368;5.254;2023-11-21T00:51:33;5.00;;;4.30;;
30169;SDS011;46426;51.368;5.254;2023-11-21T00:52:06;7.10;;;4.28;;
30169;SDS011;46426;51.368;5.254;2023-11-21T00:52:39;5.13;;;3.93;;
30169;SDS011;46426;51.368;5.254;2023-11-21T00:53:11;5.50;;;4.03;;
30169;SDS011;46426;51.368;5.254;2023-11-21T00:53:43;5.33;;;4.50;;
30169;SDS011;46426;51.368;5.254;2023-11-21T00:54:16;5.85;;;4.65;;
30169;SDS011;46426;51.368;5.254;2023-11-21T00:54:51;5.27;;;3.90;;
30169;SDS011;46426;51.368;5.254;2023-11-21T00:55:23;4.67;;;3.93;;
30169;SDS011;46426;51.368;5.254;2023-11-21T00:55:58;5.53;;;4.32;;
30169;SDS011;46426;51.368;5.254;2023-11-21T00:56:30;5.03;;;4.28;;
30169;SDS011;46426;51.368;5.254;2023-11-21T00:57:03;5.43;;;4.10;;
30169;SDS011;46426;51.368;5.254;2023-11-21T00:57:36;5.43;;;4.30;;
30169;SDS011;46426;51.368;5.254;2023-11-21T00:58:09;4.73;;;4.17;;
30169;SDS011;46426;51.368;5.254;2023-11-21T00:58:42;6.63;;;4.40;;
30169;SDS011;46426;51.368;5.254;2023-11-21T00:59:15;8.25;;;4.43;;
30169;SDS011;46426;51.368;5.254;2023-11-21T00:59:47;6.03;;;4.10;;
30169;SDS011;46426;51.368;5.254;2023-11-21T01:00:19;6.20;;;4.50;;
30169;SDS011;46426;51.368;5.254;2023-11-21T01:00:52;4.47;;;3.83;;
30169;SDS011;46426;51.368;5.254;2023-11-21T01:01:24;6.40;;;4.27;;
30169;SDS011;46426;51.368;5.254;2023-11-21T01:01:57;5.70;;;4.20;;
30169;SDS011;46426;51.368;5.254;2023-11-21T01:02:32;6.90;;;4.57;;
30169;SDS011;46426;51.368;5.254;2023-11-21T01:03:04;4.77;;;3.97;;
30169;SDS011;46426;51.368;5.254;2023-11-21T01:03:37;5.63;;;4.10;;
30169;SDS011;46426;51.368;5.254;2023-11-21T01:04:09;4.43;;;3.73;;
30169;SDS011;46426;51.368;5.254;2023-11-21T01:04:41;7.23;;;4.80;;
30169;SDS011;46426;51.368;5.254;2023-11-21T01:05:13;6.47;;;4.27;;
30169;SDS011;46426;51.368;5.254;2023-11-21T01:05:45;5.63;;;3.97;;
30169;SDS011;46426;51.368;5.254;2023-11-21T01:06:18;5.35;;;4.00;;
30169;SDS011;46426;51.368;5.254;2023-11-21T01:06:52;5.95;;;4.28;;
30169;SDS011;46426;51.368;5.254;2023-11-21T01:07:25;5.95;;;4.55;;
30169;SDS011;46426;51.368;5.254;2023-11-21T01:07:57;7.53;;;4.22;;
30169;SDS011;46426;51.368;5.254;2023-11-21T01:08:29;5.45;;;4.22;;
30169;SDS011;46426;51.368;5.254;2023-11-21T01:09:01;5.60;;;4.35;;
30169;SDS011;46426;51.368;5.254;2023-11-21T01:09:36;4.80;;;4.00;;
30169;SDS011;46426;51.368;5.254;2023-11-21T01:10:08;6.40;;;4.45;;
30169;SDS011;46426;51.368;5.254;2023-11-21T01:10:41;6.95;;;4.05;;
30169;SDS011;46426;51.368;5.254;2023-11-21T01:11:13;7.70;;;4.47;;
30169;SDS011;46426;51.368;5.254;2023-11-21T01:11:46;5.32;;;4.07;;
30169;SDS011;46426;51.368;5.254;2023-11-21T01:12:18;6.32;;;4.63;;
30169;SDS011;46426;51.368;5.254;2023-11-21T01:12:50;4.80;;;3.85;;
30169;SDS011;46426;51.368;5.254;2023-11-21T01:13:22;6.35;;;4.60;;
30169;SDS011;46426;51.368;5.254;2023-11-21T01:13:55;7.60;;;4.28;;
30169;SDS011;46426;51.368;5.254;2023-11-21T01:14:27;6.18;;;4.20;;
30169;SDS011;46426;51.368;5.254;2023-11-21T01:14:59;5.88;;;4.47;;
30169;SDS011;46426;51.368;5.254;2023-11-21T01:15:32;6.85;;;4.13;;
30169;SDS011;46426;51.368;5.254;2023-11-21T01:16:05;6.97;;;4.65;;
30169;SDS011;46426;51.368;5.254;2023-11-21T01:16:38;5.45;;;4.28;;
30169;SDS011;46426;51.368;5.254;2023-11-21T01:17:11;5.87;;;4.10;;
30169;SDS011;46426;51.368;5.254;2023-11-21T01:17:43;5.93;;;4.20;;
30169;SDS011;46426;51.368;5.254;2023-11-21T01:18:15;5.30;;;4.20;;
30169;SDS011;46426;51.368;5.254;2023-11-21T01:18:47;7.17;;;4.40;;
30169;SDS011;46426;51.368;5.254;2023-11-21T01:19:19;5.77;;;4.00;;
30169;SDS011;46426;51.368;5.254;2023-11-21T01:19:52;4.63;;;3.90;;
30169;SDS011;46426;51.368;5.254;2023-11-21T01:20:24;6.40;;;5.15;;
30169;SDS011;46426;51.368;5.254;2023-11-21T01:20:56;7.07;;;5.37;;
30169;SDS011;46426;51.368;5.254;2023-11-21T01:21:29;6.50;;;4.70;;
30169;SDS011;46426;51.368;5.254;2023-11-21T01:22:02;6.10;;;4.60;;
30169;SDS011;46426;51.368;5.254;2023-11-21T01:22:36;5.37;;;3.93;;
30169;SDS011;46426;51.368;5.254;2023-11-21T01:23:08;6.10;;;4.77;;
30169;SDS011;46426;51.368;5.254;2023-11-21T01:23:40;5.13;;;4.10;;
30169;SDS011;46426;51.368;5.254;2023-11-21T01:24:13;6.27;;;4.33;;
30169;SDS011;46426;51.368;5.254;2023-11-21T01:24:45;5.20;;;4.70;;
30169;SDS011;46426;51.368;5.254;2023-11-21T01:25:17;4.87;;;4.33;;
30169;SDS011;46426;51.368;5.254;2023-11-21T01:25:49;7.60;;;5.37;;
30169;SDS011;46426;51.368;5.254;2023-11-21T01:26:23;6.43;;;4.47;;
30169;SDS011;46426;51.368;5.254;2023-11-21T01:26:55;6.97;;;4.87;;
30169;SDS011;46426;51.368;5.254;2023-11-21T01:27:28;6.65;;;4.38;;
30169;SDS011;46426;51.368;5.254;2023-11-21T01:28:00;4.90;;;4.40;;
30169;SDS011;46426;51.368;5.254;2023-11-21T01:28:32;5.60;;;4.40;;
30169;SDS011;46426;51.368;5.254;2023-11-21T01:29:04;5.67;;;4.57;;
30169;SDS011;46426;51.368;5.254;2023-11-21T01:29:37;6.60;;;5.00;;
30169;SDS011;46426;51.368;5.254;2023-11-21T01:30:09;7.93;;;5.00;;
30169;SDS011;46426;51.368;5.254;2023-11-21T01:30:44;6.43;;;4.47;;
30169;SDS011;46426;51.368;5.254;2023-11-21T01:31:17;7.53;;;4.80;;
30169;SDS011;46426;51.368;5.254;2023-11-21T01:31:50;8.83;;;4.70;;
30169;SDS011;46426;51.368;5.254;2023-11-21T01:32:23;6.37;;;4.27;;
30169;SDS011;46426;51.368;5.254;2023-11-21T01:32:56;7.20;;;4.83;;
30169;SDS011;46426;51.368;5.254;2023-11-21T01:33:28;5.77;;;4.43;;
30169;SDS011;46426;51.368;5.254;2023-11-21T01:34:00;6.10;;;4.90;;
30169;SDS011;46426;51.368;5.254;2023-11-21T01:34:33;6.80;;;4.83;;
30169;SDS011;46426;51.368;5.254;2023-11-21T01:35:05;4.77;;;4.33;;
30169;SDS011;46426;51.368;5.254;2023-11-21T01:35:38;7.57;;;4.80;;
30169;SDS011;46426;51.368;5.254;2023-11-21T01:36:10;5.17;;;4.53;;
30169;SDS011;46426;51.368;5.254;2023-11-21T01:36:42;6.40;;;4.90;;
30169;SDS011;46426;51.368;5.254;2023-11-21T01:37:15;6.15;;;4.60;;
30169;SDS011;46426;51.368;5.254;2023-11-21T01:37:49;5.20;;;4.50;;
30169;SDS011;46426;51.368;5.254;2023-11-21T01:38:22;6.07;;;4.53;;
30169;SDS011;46426;51.368;5.254;2023-11-21T01:38:54;7.17;;;5.23;;
30169;SDS011;46426;51.368;5.254;2023-11-21T01:39:27;6.77;;;4.83;;
30169;SDS011;46426;51.368;5.254;2023-11-21T01:39:59;7.83;;;4.53;;
30169;SDS011;46426;51.368;5.254;2023-11-21T01:40:34;6.90;;;5.30;;
30169;SDS011;46426;51.368;5.254;2023-11-21T01:41:06;6.88;;;4.70;;
30169;SDS011;46426;51.368;5.254;2023-11-21T01:41:38;6.23;;;5.10;;
30169;SDS011;46426;51.368;5.254;2023-11-21T01:42:10;6.40;;;5.18;;
30169;SDS011;46426;51.368;5.254;2023-11-21T01:42:44;5.60;;;4.80;;
30169;SDS011;46426;51.368;5.254;2023-11-21T01:43:17;7.33;;;5.03;;
30169;SDS011;46426;51.368;5.254;2023-11-21T01:43:49;6.38;;;5.15;;
30169;SDS011;46426;51.368;5.254;2023-11-21T01:44:23;5.53;;;4.57;;
30169;SDS011;46426;51.368;5.254;2023-11-21T01:44:56;6.87;;;5.57;;
30169;SDS011;46426;51.368;5.254;2023-11-21T01:45:28;7.47;;;5.78;;
30169;SDS011;46426;51.368;5.254;2023-11-21T01:46:02;7.57;;;4.67;;
30169;SDS011;46426;51.368;5.254;2023-11-21T01:46:36;5.77;;;4.93;;
30169;SDS011;46426;51.368;5.254;2023-11-21T01:47:09;7.63;;;5.30;;
30169;SDS011;46426;51.368;5.254;2023-11-21T01:47:42;7.47;;;5.47;;
30169;SDS011;46426;51.368;5.254;2023-11-21T01:48:16;6.57;;;5.30;;
30169;SDS011;46426;51.368;5.254;2023-11-21T01:48:48;5.90;;;5.30;;
30169;SDS011;46426;51.368;5.254;2023-11-21T01:49:21;9.37;;;5.37;;
30169;SDS011;46426;51.368;5.254;2023-11-21T01:49:53;7.10;;;5.30;;
30169;SDS011;46426;51.368;5.254;2023-11-21T01:50:26;6.60;;;5.20;;
30169;SDS011;46426;51.368;5.254;2023-11-21T01:50:58;7.47;;;5.57;;
30169;SDS011;46426;51.368;5.254;2023-11-21T01:51:30;7.73;;;5.63;;
30169;SDS011;46426;51.368;5.254;2023-11-21T01:52:03;7.70;;;6.10;;
30169;SDS011;46426;51.368;5.254;2023-11-21T01:52:36;7.83;;;5.83;;
30169;SDS011;46426;51.368;5.254;2023-11-21T01:53:08;6.93;;;5.47;;
30169;SDS011;46426;51.368;5.254;2023-11-21T01:53:41;6.60;;;5.43;;
30169;SDS011;46426;51.368;5.254;2023-11-21T01:54:14;6.88;;;5.97;;
30169;SDS011;46426;51.368;5.254;2023-11-21T01:54:49;6.57;;;5.40;;
30169;SDS011;46426;51.368;5.254;2023-11-21T01:55:21;6.47;;;5.30;;
30169;SDS011;46426;51.368;5.254;2023-11-21T01:55:56;7.47;;;5.43;;
30169;SDS011;46426;51.368;5.254;2023-11-21T01:56:30;8.00;;;6.60;;
30169;SDS011;46426;51.368;5.254;2023-11-21T01:57:04;8.30;;;5.67;;
30169;SDS011;46426;51.368;5.254;2023-11-21T01:57:38;6.65;;;4.97;;
30169;SDS011;46426;51.368;5.254;2023-11-21T01:58:10;6.70;;;5.27;;
30169;SDS011;46426;51.368;5.254;2023-11-21T01:58:45;7.23;;;5.50;;
30169;SDS011;46426;51.368;5.254;2023-11-21T01:59:19;7.47;;;6.00;;
30169;SDS011;46426;51.368;5.254;2023-11-21T01:59:54;7.03;;;5.47;;
30169;SDS011;46426;51.368;5.254;2023-11-21T02:00:26;6.70;;;5.67;;
30169;SDS011;46426;51.368;5.254;2023-11-21T02:01:00;7.90;;;5.80;;
30169;SDS011;46426;51.368;5.254;2023-11-21T02:01:33;7.27;;;5.87;;
30169;SDS011;46426;51.368;5.254;2023-11-21T02:02:06;6.87;;;5.53;;
30169;SDS011;46426;51.368;5.254;2023-11-21T02:02:40;7.88;;;5.75;;
30169;SDS011;46426;51.368;5.254;2023-11-21T02:03:12;10.40;;;6.00;;
30169;SDS011;46426;51.368;5.254;2023-11-21T02:03:44;7.30;;;5.90;;
30169;SDS011;46426;51.368;5.254;2023-11-21T02:04:16;7.70;;;6.20;;
30169;SDS011;46426;51.368;5.254;2023-11-21T02:04:48;7.50;;;5.90;;
30169;SDS011;46426;51.368;5.254;2023-11-21T02:05:20;7.00;;;5.63;;
30169;SDS011;46426;51.368;5.254;2023-11-21T02:05:57;7.30;;;5.90;;
30169;SDS011;46426;51.368;5.254;2023-11-21T02:06:30;7.40;;;5.80;;
30169;SDS011;46426;51.368;5.254;2023-11-21T02:07:03;8.10;;;6.37;;
30169;SDS011;46426;51.368;5.254;2023-11-21T02:07:39;6.90;;;5.93;;
30169;SDS011;46426;51.368;5.254;2023-11-21T02:08:11;7.43;;;6.10;;
30169;SDS011;46426;51.368;5.254;2023-11-21T02:08:43;7.83;;;6.37;;
30169;SDS011;46426;51.368;5.254;2023-11-21T02:09:16;9.70;;;5.90;;
30169;SDS011;46426;51.368;5.254;2023-11-21T02:09:50;8.47;;;6.10;;
30169;SDS011;46426;51.368;5.254;2023-11-21T02:10:23;7.73;;;6.40;;
30169;SDS011;46426;51.368;5.254;2023-11-21T02:10:56;7.57;;;5.93;;
30169;SDS011;46426;51.368;5.254;2023-11-21T02:11:29;10.10;;;7.07;;
30169;SDS011;46426;51.368;5.254;2023-11-21T02:12:01;8.13;;;6.20;;
30169;SDS011;46426;51.368;5.254;2023-11-21T02:12:34;7.43;;;5.43;;
30169;SDS011;46426;51.368;5.254;2023-11-21T02:13:07;7.97;;;6.20;;
30169;SDS011;46426;51.368;5.254;2023-11-21T02:13:39;6.63;;;5.60;;
30169;SDS011;46426;51.368;5.254;2023-11-21T02:14:15;8.03;;;6.23;;
30169;SDS011;46426;51.368;5.254;2023-11-21T02:14:47;7.28;;;6.45;;
30169;SDS011;46426;51.368;5.254;2023-11-21T02:15:19;8.00;;;6.43;;
30169;SDS011;46426;51.368;5.254;2023-11-21T02:15:52;7.03;;;5.80;;
30169;SDS011;46426;51.368;5.254;2023-11-21T02:16:26;8.27;;;6.43;;
30169;SDS011;46426;51.368;5.254;2023-11-21T02:16:59;7.70;;;6.13;;
30169;SDS011;46426;51.368;5.254;2023-11-21T02:17:32;6.93;;;6.20;;
30169;SDS011;46426;51.368;5.254;2023-11-21T02:18:05;8.30;;;6.60;;
30169;SDS011;46426;51.368;5.254;2023-11-21T02:18:39;7.13;;;5.90;;
30169;SDS011;46426;51.368;5.254;2023-11-21T02:19:11;7.60;;;6.40;;
30169;SDS011;46426;51.368;5.254;2023-11-21T02:19:46;7.57;;;6.43;;
30169;SDS011;46426;51.368;5.254;2023-11-21T02:20:21;7.10;;;5.53;;
30169;SDS011;46426;51.368;5.254;2023-11-21T02:20:56;7.57;;;6.10;;
30169;SDS011;46426;51.368;5.254;2023-11-21T02:21:29;7.57;;;5.73;;
30169;SDS011;46426;51.368;5.254;2023-11-21T02:22:02;8.67;;;6.20;;
30169;SDS011;46426;51.368;5.254;2023-11-21T02:22:36;7.77;;;6.03;;
30169;SDS011;46426;51.368;5.254;2023-11-21T02:23:11;7.10;;;6.30;;
30169;SDS011;46426;51.368;5.254;2023-11-21T02:23:44;7.77;;;6.10;;
30169;SDS011;46426;51.368;5.254;2023-11-21T02:24:21;7.40;;;5.83;;
30169;SDS011;46426;51.368;5.254;2023-11-21T02:24:53;8.10;;;6.23;;
30169;SDS011;46426;51.368;5.254;2023-11-21T02:25:26;7.70;;;5.97;;
30169;SDS011;46426;51.368;5.254;2023-11-21T02:25:59;9.50;;;7.13;;
30169;SDS011;46426;51.368;5.254;2023-11-21T02:26:36;7.23;;;5.57;;
30169;SDS011;46426;51.368;5.254;2023-11-21T02:27:08;7.30;;;6.00;;
30169;SDS011;46426;51.368;5.254;2023-11-21T02:27:40;6.80;;;5.50;;
30169;SDS011;46426;51.368;5.254;2023-11-21T02:28:12;8.10;;;6.50;;
30169;SDS011;46426;51.368;5.254;2023-11-21T02:28:47;7.13;;;6.10;;
30169;SDS011;46426;51.368;5.254;2023-11-21T02:29:20;8.20;;;6.57;;
30169;SDS011;46426;51.368;5.254;2023-11-21T02:29:59;7.50;;;5.97;;
30169;SDS011;46426;51.368;5.254;2023-11-21T02:30:33;8.40;;;6.53;;
30169;SDS011;46426;51.368;5.254;2023-11-21T02:31:05;8.37;;;6.53;;
30169;SDS011;46426;51.368;5.254;2023-11-21T02:31:39;7.87;;;6.50;;
30169;SDS011;46426;51.368;5.254;2023-11-21T02:32:20;7.57;;;6.00;;
30169;SDS011;46426;51.368;5.254;2023-11-21T02:32:54;7.70;;;5.70;;
30169;SDS011;46426;51.368;5.254;2023-11-21T02:33:29;8.27;;;5.97;;
30169;SDS011;46426;51.368;5.254;2023-11-21T02:34:02;7.13;;;6.23;;
30169;SDS011;46426;51.368;5.254;2023-11-21T02:34:35;7.20;;;6.10;;
30169;SDS011;46426;51.368;5.254;2023-11-21T02:35:08;7.03;;;6.27;;
30169;SDS011;46426;51.368;5.254;2023-11-21T02:35:41;7.63;;;6.05;;
30169;SDS011;46426;51.368;5.254;2023-11-21T02:36:15;8.27;;;6.80;;
30169;SDS011;46426;51.368;5.254;2023-11-21T02:36:47;8.20;;;5.97;;
30169;SDS011;46426;51.368;5.254;2023-11-21T02:37:21;7.67;;;6.43;;
30169;SDS011;46426;51.368;5.254;2023-11-21T02:37:53;7.67;;;6.17;;
30169;SDS011;46426;51.368;5.254;2023-11-21T02:38:26;6.90;;;5.63;;
30169;SDS011;46426;51.368;5.254;2023-11-21T02:38:58;7.60;;;5.90;;
30169;SDS011;46426;51.368;5.254;2023-11-21T02:39:31;7.40;;;5.77;;
30169;SDS011;46426;51.368;5.254;2023-11-21T02:40:03;6.83;;;5.80;;
30169;SDS011;46426;51.368;5.254;2023-11-21T02:40:38;8.00;;;6.00;;
30169;SDS011;46426;51.368;5.254;2023-11-21T02:41:10;6.87;;;5.83;;
30169;SDS011;46426;51.368;5.254;2023-11-21T02:41:43;7.40;;;5.90;;
30169;SDS011;46426;51.368;5.254;2023-11-21T02:42:15;6.83;;;5.93;;
30169;SDS011;46426;51.368;5.254;2023-11-21T02:42:47;6.67;;;5.97;;
30169;SDS011;46426;51.368;5.254;2023-11-21T02:43:19;6.30;;;5.70;;
30169;SDS011;46426;51.368;5.254;2023-11-21T02:43:51;6.50;;;5.60;;
30169;SDS011;46426;51.368;5.254;2023-11-21T02:44:23;8.15;;;6.10;;
30169;SDS011;46426;51.368;5.254;2023-11-21T02:44:55;6.63;;;5.93;;
30169;SDS011;46426;51.368;5.254;2023-11-21T02:45:28;7.40;;;5.97;;
30169;SDS011;46426;51.368;5.254;2023-11-21T02:46:01;7.07;;;5.70;;
30169;SDS011;46426;51.368;5.254;2023-11-21T02:46:33;7.80;;;6.07;;
30169;SDS011;46426;51.368;5.254;2023-11-21T02:47:06;7.17;;;5.93;;
30169;SDS011;46426;51.368;5.254;2023-11-21T02:47:38;7.17;;;6.40;;
30169;SDS011;46426;51.368;5.254;2023-11-21T02:48:11;7.53;;;6.30;;
30169;SDS011;46426;51.368;5.254;2023-11-21T02:48:43;9.38;;;6.45;;
30169;SDS011;46426;51.368;5.254;2023-11-21T02:49:15;7.30;;;6.03;;
30169;SDS011;46426;51.368;5.254;2023-11-21T02:49:47;7.13;;;5.90;;
30169;SDS011;46426;51.368;5.254;2023-11-21T02:50:20;6.43;;;5.67;;
30169;SDS011;46426;51.368;5.254;2023-11-21T02:50:52;6.97;;;5.83;;
30169;SDS011;46426;51.368;5.254;2023-11-21T02:51:25;5.93;;;5.20;;
30169;SDS011;46426;51.368;5.254;2023-11-21T02:51:57;6.27;;;5.63;;
30169;SDS011;46426;51.368;5.254;2023-11-21T02:52:29;6.90;;;6.03;;
30169;SDS011;46426;51.368;5.254;2023-11-21T02:53:01;6.07;;;5.43;;
30169;SDS011;46426;51.368;5.254;2023-11-21T02:53:33;6.67;;;5.60;;
30169;SDS011;46426;51.368;5.254;2023-11-21T02:54:06;7.23;;;5.67;;
30169;SDS011;46426;51.368;5.254;2023-11-21T02:54:40;6.53;;;5.60;;
30169;SDS011;46426;51.368;5.254;2023-11-21T02:55:12;6.57;;;5.82;;
30169;SDS011;46426;51.368;5.254;2023-11-21T02:55:44;7.47;;;6.00;;
30169;SDS011;46426;51.368;5.254;2023-11-21T02:56:16;6.20;;;5.60;;
30169;SDS011;46426;51.368;5.254;2023-11-21T02:56:48;7.20;;;5.67;;
30169;SDS011;46426;51.368;5.254;2023-11-21T02:57:21;7.20;;;6.10;;
30169;SDS011;46426;51.368;5.254;2023-11-21T02:57:54;7.43;;;6.20;;
30169;SDS011;46426;51.368;5.254;2023-11-21T02:58:28;9.33;;;6.57;;
30169;SDS011;46426;51.368;5.254;2023-11-21T02:59:00;7.67;;;5.70;;
30169;SDS011;46426;51.368;5.254;2023-11-21T02:59:32;7.73;;;5.63;;
30169;SDS011;46426;51.368;5.254;2023-11-21T03:00:05;6.30;;;5.67;;
30169;SDS011;46426;51.368;5.254;2023-11-21T03:00:39;5.82;;;5.25;;
30169;SDS011;46426;51.368;5.254;2023-11-21T03:01:13;6.43;;;5.83;;
30169;SDS011;46426;51.368;5.254;2023-11-21T03:01:46;7.17;;;5.60;;
30169;SDS011;46426;51.368;5.254;2023-11-21T03:02:18;6.77;;;6.07;;
30169;SDS011;46426;51.368;5.254;2023-11-21T03:02:51;6.93;;;6.23;;
30169;SDS011;46426;51.368;5.254;2023-11-21T03:03:23;6.07;;;5.43;;
30169;SDS011;46426;51.368;5.254;2023-11-21T03:03:57;5.97;;;5.23;;
30169;SDS011;46426;51.368;5.254;2023-11-21T03:04:29;7.43;;;5.13;;
30169;SDS011;46426;51.368;5.254;2023-11-21T03:05:05;8.07;;;5.70;;
30169;SDS011;46426;51.368;5.254;2023-11-21T03:05:37;6.00;;;5.33;;
30169;SDS011;46426;51.368;5.254;2023-11-21T03:06:11;6.33;;;5.67;;
30169;SDS011;46426;51.368;5.254;2023-11-21T03:06:44;8.00;;;5.70;;
30169;SDS011;46426;51.368;5.254;2023-11-21T03:07:17;6.53;;;5.33;;
30169;SDS011;46426;51.368;5.254;2023-11-21T03:07:51;5.70;;;5.10;;
30169;SDS011;46426;51.368;5.254;2023-11-21T03:08:23;6.50;;;5.80;;
30169;SDS011;46426;51.368;5.254;2023-11-21T03:08:55;6.13;;;5.20;;
30169;SDS011;46426;51.368;5.254;2023-11-21T03:09:27;6.00;;;5.40;;
30169;SDS011;46426;51.368;5.254;2023-11-21T03:10:00;6.53;;;5.83;;
30169;SDS011;46426;51.368;5.254;2023-11-21T03:10:32;6.30;;;5.60;;
30169;SDS011;46426;51.368;5.254;2023-11-21T03:11:05;5.87;;;5.27;;
30169;SDS011;46426;51.368;5.254;2023-11-21T03:11:37;6.37;;;5.53;;
30169;SDS011;46426;51.368;5.254;2023-11-21T03:12:10;6.53;;;5.10;;
30169;SDS011;46426;51.368;5.254;2023-11-21T03:12:43;6.05;;;5.32;;
30169;SDS011;46426;51.368;5.254;2023-11-21T03:13:16;6.35;;;5.43;;
30169;SDS011;46426;51.368;5.254;2023-11-21T03:13:48;6.43;;;5.73;;
30169;SDS011;46426;51.368;5.254;2023-11-21T03:14:20;5.97;;;5.37;;
30169;SDS011;46426;51.368;5.254;2023-11-21T03:14:52;5.90;;;5.30;;
30169;SDS011;46426;51.368;5.254;2023-11-21T03:15:26;6.00;;;5.40;;
30169;SDS011;46426;51.368;5.254;2023-11-21T03:15:58;6.70;;;5.63;;
30169;SDS011;46426;51.368;5.254;2023-11-21T03:16:31;6.03;;;5.20;;
30169;SDS011;46426;51.368;5.254;2023-11-21T03:17:04;6.30;;;5.30;;
30169;SDS011;46426;51.368;5.254;2023-11-21T03:17:37;7.47;;;6.03;;
30169;SDS011;46426;51.368;5.254;2023-11-21T03:18:09;6.30;;;5.70;;